Time;durP1;ratioP1;P1;durP2;ratioP2;P2;SDS_P1;SDS_P2;PMS_P1;PMS_P2;Temp;Humidity;BMP_temperature;BMP_pressure;BME280_temperature;BME280_humidity;BME280_pressure;Samples;Min_cycle;Max_cycle;Signal;HPM_P1;HPM_P2
2021/09/15 06:49:52;;;;;;;15.60;13.27;;;19.40;99.90;;;20.70;100.00;99925.53;6155183;23;20025;-87
2021/09/15 06:52:25;;;;;;;18.00;14.02;;;19.40;99.90;;;20.73;100.00;99933.94;6186758;23;20589;-87
2021/09/15 06:58:39;;;;;;;17.45;13.88;;;19.40;99.90;;;20.78;100.00;99924.88;6277270;22;20020;-89
2021/09/15 07:01:12;;;;;;;15.27;13.18;;;19.50;99.90;;;20.82;100.00;99925.59;6252553;22;20035;-88
2021/09/15 07:03:40;;;;;;;17.70;13.02;;;19.50;99.90;;;20.86;100.00;99937.66;6252178;22;20019;-88
2021/09/15 07:06:11;;;;;;;18.38;13.85;;;19.50;99.90;;;20.86;100.00;99943.34;6251867;22;20008;-90
2021/09/15 07:08:51;;;;;;;19.40;13.80;;;19.50;99.90;;;20.80;100.00;99945.13;6248488;23;20015;-88
2021/09/15 07:11:28;;;;;;;14.88;12.98;;;19.50;99.90;;;20.86;100.00;99942.53;6223889;23;20035;-88
2021/09/15 07:14:07;;;;;;;17.27;13.15;;;19.50;99.90;;;20.92;100.00;99952.09;6223544;23;20012;-88
2021/09/15 07:16:34;;;;;;;18.88;12.90;;;19.60;99.90;;;21.04;100.00;99945.69;6223040;23;20004;-88
2021/09/15 07:19:03;;;;;;;15.65;11.80;;;19.70;99.90;;;21.12;100.00;99946.34;6249460;23;20001;-89
2021/09/15 07:21:31;;;;;;;18.08;13.07;;;19.70;99.90;;;21.21;100.00;99938.78;6223270;23;20004;-88
2021/09/15 07:28:27;;;;;;;15.98;12.05;;;19.80;99.90;;;21.60;100.00;99951.09;6259057;22;20000;-87
2021/09/15 07:31:38;;;;;;;13.18;11.40;;;19.80;99.90;;;21.64;100.00;99941.19;6230596;23;20076;-87
2021/09/15 07:38:46;;;;;;;13.77;11.68;;;19.90;99.90;;;21.70;100.00;99950.78;6196944;23;20012;-87
2021/09/15 07:42:44;;;;;;;14.98;11.43;;;19.90;99.90;;;21.89;100.00;99951.88;6196874;23;20012;-86
2021/09/15 08:00:42;;;;;;;;;;;;;;;;;;;;;
2021/09/15 08:03:48;;;;;;;15.18;9.65;;;20.70;99.90;;;22.82;98.30;99973.31;6281684;22;20480;-86
2021/09/15 08:06:56;;;;;;;11.57;8.32;;;20.80;99.90;;;22.93;97.45;99966.00;6263154;22;20008;-86
2021/09/15 08:09:24;;;;;;;11.30;9.70;;;21.00;99.90;;;23.06;97.16;99963.09;6262440;22;20368;-89
2021/09/15 08:11:56;;;;;;;12.52;8.50;;;21.10;99.90;;;23.39;95.87;99967.22;6255084;22;20030;-87
2021/09/15 08:16:20;;;;;;;10.35;7.88;;;21.40;99.90;;;23.52;94.15;99964.34;6254433;22;20003;-88
2021/09/15 08:19:15;;;;;;;12.70;8.00;;;21.70;99.90;;;23.40;93.72;99957.47;6256483;22;20018;-88
2021/09/15 08:21:59;;;;;;;9.80;7.07;;;21.60;99.90;;;23.35;93.63;99955.16;6256166;22;20016;-88
2021/09/15 08:24:25;;;;;;;9.15;7.50;;;21.50;99.90;;;23.18;95.16;99956.59;6226700;23;20018;-88
2021/09/15 08:26:51;;;;;;;9.30;6.45;;;21.40;99.90;;;22.77;94.74;99957.59;6224229;23;20087;-88
2021/09/15 08:29:21;;;;;;;9.05;6.13;;;21.30;99.90;;;22.74;95.52;99961.34;6249874;23;20011;-85
2021/09/15 08:32:12;;;;;;;8.98;6.40;;;21.20;99.90;;;22.65;95.04;99957.59;6239355;23;20015;-87
2021/09/15 08:34:38;;;;;;;11.18;5.57;;;21.10;99.90;;;22.67;96.11;99958.75;6224443;23;20039;-87
2021/09/15 08:37:04;;;;;;;8.32;5.55;;;21.10;99.90;;;22.64;96.41;99959.63;6251478;23;20016;-84
2021/09/15 08:39:33;;;;;;;6.90;5.30;;;21.10;99.90;;;22.64;95.22;99955.97;6225024;23;20011;-87
2021/09/15 08:41:59;;;;;;;8.40;5.18;;;21.20;99.90;;;22.44;95.12;99957.03;6225057;23;20008;-87
2021/09/15 08:44:26;;;;;;;7.20;5.40;;;21.10;99.90;;;22.47;95.90;99958.97;6246333;23;20004;-89
2021/09/15 08:47:26;;;;;;;7.70;5.07;;;21.10;99.90;;;22.51;94.95;99950.31;6249220;23;20004;-86
2021/09/15 08:50:09;;;;;;;7.45;5.07;;;21.10;99.90;;;22.49;94.81;99947.94;6223154;23;20067;-87
2021/09/15 08:52:37;;;;;;;7.57;5.50;;;21.00;99.90;;;22.33;96.70;99950.88;6224301;23;20068;-88
2021/09/15 08:55:09;;;;;;;9.15;5.32;;;21.00;99.90;;;22.43;95.04;99949.75;6224284;23;20244;-88
2021/09/15 08:57:44;;;;;;;6.30;4.93;;;21.00;99.90;;;22.45;94.85;99949.28;6222756;23;20009;-86
2021/09/15 09:00:13;;;;;;;7.95;5.68;;;21.00;99.90;;;22.68;94.12;99948.16;6223071;23;20086;-89
2021/09/15 09:02:51;;;;;;;7.90;5.47;;;21.10;99.90;;;22.76;95.07;99952.38;6224042;23;20030;-87
2021/09/15 09:05:17;;;;;;;5.95;4.80;;;21.30;99.90;;;22.83;93.84;99955.00;6224370;23;20004;-85
2021/09/15 09:07:44;;;;;;;7.60;5.65;;;21.40;99.90;;;23.06;91.99;99952.53;6223680;23;20012;-86
2021/09/15 09:10:16;;;;;;;9.23;5.32;;;21.50;99.90;;;23.04;93.59;99951.41;6248676;23;20007;-86
2021/09/15 09:13:02;;;;;;;8.77;4.53;;;21.50;99.90;;;23.03;91.74;99959.13;6250091;23;20008;-88
2021/09/15 09:15:40;;;;;;;7.50;4.85;;;21.50;99.90;;;22.68;93.38;99954.66;6224732;23;20054;-86
2021/09/15 09:18:09;;;;;;;8.90;5.53;;;21.40;99.90;;;22.57;94.19;99952.13;6250294;23;20015;-87
2021/09/15 09:20:37;;;;;;;10.88;5.47;;;21.20;99.90;;;22.37;94.48;99945.88;6222518;23;20012;-85
2021/09/15 09:23:20;;;;;;;7.60;5.22;;;21.10;99.90;;;22.39;94.70;99954.75;6224180;23;20000;-86
2021/09/15 09:25:57;;;;;;;8.30;5.25;;;21.00;99.90;;;22.35;93.87;99954.06;6224640;23;20015;-84
2021/09/15 09:28:34;;;;;;;7.75;4.55;;;21.00;99.90;;;22.26;95.28;99951.09;6223794;23;20119;-85
2021/09/15 09:31:13;;;;;;;7.65;4.97;;;20.90;99.90;;;22.34;95.33;99952.50;6224737;23;20005;-84
2021/09/15 09:34:08;;;;;;;8.88;5.07;;;20.90;99.90;;;22.35;95.26;99956.91;6224987;23;20361;-86
2021/09/15 09:36:34;;;;;;;7.10;5.28;;;20.90;99.90;;;22.46;94.49;99954.53;6224134;23;20004;-85
2021/09/15 09:39:13;;;;;;;7.13;5.35;;;21.00;99.90;;;22.65;93.82;99949.84;6224605;23;20017;-85
2021/09/15 09:41:45;;;;;;;7.85;5.82;;;20.90;99.90;;;22.71;93.18;99959.44;6250256;23;20031;-87
2021/09/15 09:44:11;;;;;;;10.32;5.65;;;21.10;99.90;;;22.92;92.29;99953.03;6226094;23;20011;-86
2021/09/15 09:47:25;;;;;;;7.70;5.40;;;21.20;99.90;;;22.93;91.78;99953.81;6222891;23;20008;-88
2021/09/15 09:50:01;;;;;;;7.95;5.95;;;21.20;99.90;;;22.77;92.58;99951.91;6224547;23;20011;-87
2021/09/15 09:53:02;;;;;;;10.25;5.82;;;21.20;99.90;;;22.73;92.75;99958.97;6224391;23;20039;-89
2021/09/15 09:55:37;;;;;;;11.73;5.88;;;21.20;99.90;;;22.33;95.33;99948.03;6224331;23;20107;-86
2021/09/15 09:58:07;;;;;;;8.45;5.97;;;21.00;99.90;;;22.52;95.50;99947.00;6224982;23;20008;-84
2021/09/15 10:00:37;;;;;;;7.82;6.68;;;21.00;99.90;;;22.42;96.10;99951.00;6249944;23;20026;-84
2021/09/15 10:03:04;;;;;;;11.45;6.95;;;21.00;99.90;;;22.47;96.10;99949.66;6222431;23;20015;-87
2021/09/15 10:05:30;;;;;;;14.27;7.72;;;21.00;99.90;;;22.44;96.57;99942.78;6225227;23;20028;-85
2021/09/15 10:08:11;;;;;;;7.72;6.15;;;21.00;99.90;;;22.51;95.03;99941.75;6259035;22;20004;-88
2021/09/15 10:10:48;;;;;;;7.40;6.57;;;20.90;99.90;;;22.35;96.40;99945.53;6225985;23;20043;-87
2021/09/15 10:13:21;;;;;;;7.97;6.75;;;20.90;99.90;;;22.13;99.08;99947.47;6249072;23;20377;-87
2021/09/15 10:16:06;;;;;;;9.80;7.20;;;20.90;99.90;;;21.91;100.00;99947.31;6223634;23;20004;-88
2021/09/15 10:18:33;;;;;;;8.07;6.60;;;20.90;99.90;;;21.81;100.00;99939.06;6223553;23;20005;-87
2021/09/15 10:21:23;;;;;;;9.85;6.88;;;20.90;99.90;;;21.94;100.00;99940.72;6248740;23;20015;-87
2021/09/15 10:23:55;;;;;;;7.97;6.32;;;20.90;99.90;;;21.99;100.00;99934.47;6221513;23;20019;-87
2021/09/15 10:27:06;;;;;;;8.15;5.93;;;20.90;99.90;;;21.94;100.00;99940.72;6222590;23;20065;-89
2021/09/15 10:29:32;;;;;;;11.63;6.60;;;20.80;99.90;;;21.59;100.00;99935.28;6223575;23;20462;-87
2021/09/15 10:32:09;;;;;;;6.88;5.75;;;20.80;99.90;;;21.51;100.00;99929.03;6223392;23;20012;-89
2021/09/15 10:34:39;;;;;;;8.70;6.95;;;20.60;99.90;;;21.55;100.00;99930.50;6251275;23;20504;-90
2021/09/15 10:37:12;;;;;;;8.73;6.47;;;20.60;99.90;;;21.55;100.00;99927.66;6236410;23;20025;-88
2021/09/15 10:40:08;;;;;;;10.77;6.78;;;20.60;99.90;;;21.53;100.00;99926.50;6244067;23;19996;-88
2021/09/15 10:42:46;;;;;;;8.50;7.32;;;20.50;99.90;;;21.54;100.00;99945.16;6267050;23;20008;-88
2021/09/15 10:45:30;;;;;;;8.82;6.85;;;20.60;99.90;;;21.92;100.00;99934.72;6241906;23;20035;-86
2021/09/15 10:48:14;;;;;;;10.13;7.07;;;20.50;99.90;;;21.57;100.00;99937.78;6226331;23;20464;-86
2021/09/15 10:50:58;;;;;;;9.73;7.13;;;20.60;99.90;;;21.68;100.00;99941.09;6225283;23;20004;-86
2021/09/15 10:53:31;;;;;;;9.95;6.97;;;20.70;99.90;;;21.84;100.00;99941.00;6226651;23;20406;-88
2021/09/15 10:56:35;;;;;;;8.00;7.20;;;20.70;99.90;;;22.56;99.71;99935.50;6227031;23;20011;-86
2021/09/15 10:59:34;;;;;;;8.25;6.80;;;20.90;99.90;;;22.76;98.01;99938.94;6240050;23;20012;-84
2021/09/15 11:02:34;;;;;;;8.63;7.40;;;21.00;99.90;;;22.63;98.38;99943.81;6230171;23;20012;-89
2021/09/15 11:05:29;;;;;;;9.57;7.07;;;21.10;99.90;;;22.84;97.66;99948.00;6223225;23;20035;-86
2021/09/15 11:07:58;;;;;;;10.88;7.75;;;21.10;99.90;;;22.55;99.41;99939.59;6254560;23;20060;-86
2021/09/15 11:10:45;;;;;;;9.93;6.70;;;21.10;99.90;;;22.69;98.50;99947.72;6227008;23;20008;-90
2021/09/15 11:13:42;;;;;;;7.00;6.05;;;21.00;99.90;;;22.41;100.00;99949.41;6228508;23;20012;-87
2021/09/15 11:16:37;;;;;;;7.65;6.30;;;20.90;99.90;;;22.32;100.00;99949.28;6229814;23;20168;-87
2021/09/15 11:19:34;;;;;;;11.73;7.22;;;20.70;99.90;;;22.20;100.00;99964.31;6255011;23;20004;-88
2021/09/15 11:22:02;;;;;;;8.40;5.25;;;20.60;99.90;;;22.12;100.00;99960.09;6228592;23;20004;-90
2021/09/15 11:24:32;;;;;;;6.50;4.93;;;20.60;99.90;;;22.29;100.00;99963.63;6255279;23;20336;-89
2021/09/15 11:27:06;;;;;;;4.97;4.18;;;20.60;99.90;;;22.48;100.00;99962.59;6227834;23;20468;-88
2021/09/15 11:30:07;;;;;;;;;;;;;;;;;;;;;
2021/09/15 11:32:54;;;;;;;6.13;4.03;;;20.90;99.90;;;22.82;99.95;99965.56;6254124;23;20032;-87
2021/09/15 11:35:27;;;;;;;4.60;3.53;;;21.00;99.90;;;22.76;99.59;99970.25;6251090;23;20376;-86
2021/09/15 11:38:58;;;;;;;5.63;3.53;;;21.10;99.90;;;22.58;99.57;99973.66;6252391;23;20004;-87
2021/09/15 11:41:50;;;;;;;3.90;3.38;;;21.00;99.90;;;22.54;99.83;99975.00;6252916;23;20369;-87
2021/09/15 11:44:50;;;;;;;3.15;2.70;;;21.00;99.90;;;22.27;100.00;99980.34;6227149;23;20004;-86
2021/09/15 11:48:18;;;;;;;7.55;3.10;;;20.90;99.90;;;22.40;99.82;99979.13;6226684;23;20008;-86
2021/09/15 11:50:45;;;;;;;;;;;20.80;99.90;;;22.54;99.54;99978.66;6253986;23;20255;-86
2021/09/15 11:53:16;;;;;;;3.78;3.30;;;20.80;99.90;;;22.39;99.28;99982.41;6225310;23;19904;-85
2021/09/15 11:56:00;;;;;;;4.45;3.58;;;20.80;99.90;;;22.47;98.74;99993.13;6227648;23;20008;-86
2021/09/15 11:58:41;;;;;;;3.95;3.55;;;20.80;99.90;;;22.46;97.78;99983.00;6252087;23;20012;-87
2021/09/15 12:01:19;;;;;;;4.35;3.60;;;20.70;99.90;;;22.37;97.89;99985.72;6250559;23;20087;-86
2021/09/15 12:03:48;;;;;;;6.80;3.72;;;20.80;99.90;;;22.38;98.06;99990.13;6226653;23;20000;-84
2021/09/15 12:06:15;;;;;;;4.68;3.58;;;20.70;99.90;;;22.49;98.24;99993.47;6234833;22;20015;-83
2021/09/15 12:08:43;;;;;;;5.53;4.50;;;20.70;99.90;;;22.55;97.69;99987.97;6226003;23;20012;-89
2021/09/15 12:11:12;;;;;;;4.85;4.03;;;20.80;99.90;;;22.67;97.71;99989.28;6224664;23;20055;-88
2021/09/15 12:14:09;;;;;;;7.90;6.10;;;20.80;99.90;;;22.36;98.38;99983.31;6252215;23;20004;-88
2021/09/15 12:16:42;;;;;;;7.10;5.97;;;20.90;99.90;;;22.62;97.05;99989.81;6252123;23;20027;-87
2021/09/15 12:19:22;;;;;;;6.55;5.82;;;20.80;99.90;;;22.76;96.75;99980.84;6224991;23;20446;-87
2021/09/15 12:22:01;;;;;;;11.43;7.15;;;20.90;99.90;;;22.65;96.45;99974.66;6225916;23;20012;-86
2021/09/15 12:24:27;;;;;;;9.10;6.72;;;20.90;99.90;;;22.70;94.98;99960.66;6224882;23;20000;-88
2021/09/15 12:26:54;;;;;;;8.23;6.60;;;21.00;99.90;;;22.93;93.94;99957.44;6251393;23;20036;-88
2021/09/15 12:29:22;;;;;;;9.27;7.15;;;21.10;99.90;;;23.10;93.14;99952.41;6225197;23;20032;-87
2021/09/15 12:31:59;;;;;;;10.57;7.63;;;21.20;99.90;;;23.10;92.04;99943.84;6251416;23;20008;-85
2021/09/15 12:34:36;;;;;;;15.23;8.65;;;21.30;99.90;;;23.17;91.79;99957.84;6251616;23;20001;-86
2021/09/15 12:37:17;;;;;;;10.25;7.97;;;21.40;99.90;;;23.30;91.02;99955.75;6225090;23;20066;-87
2021/09/15 12:40:01;;;;;;;11.23;7.47;;;21.40;99.90;;;23.30;90.29;99958.59;6251877;23;20005;-86
2021/09/15 12:42:31;;;;;;;9.82;7.43;;;21.50;99.90;;;23.39;90.28;99963.56;6225549;23;20004;-86
2021/09/15 12:45:04;;;;;;;9.52;6.63;;;21.60;99.90;;;23.54;90.84;99964.69;6224591;23;20008;-88
2021/09/15 12:47:45;;;;;;;7.32;5.78;;;21.60;99.90;;;23.74;90.17;99970.06;6225264;23;20389;-87
2021/09/15 12:50:33;;;;;;;9.15;6.22;;;21.70;99.90;;;23.89;89.39;99968.28;6250185;23;20403;-90
2021/09/15 12:53:11;;;;;;;8.20;5.40;;;21.90;99.90;;;24.14;87.38;99963.19;6251711;23;20011;-88
2021/09/15 12:55:49;;;;;;;7.05;4.40;;;22.10;99.90;;;24.42;86.38;99966.19;6224929;23;20012;-90
2021/09/15 12:58:33;;;;;;;8.18;4.72;;;22.40;99.90;;;24.59;84.79;99968.31;6252753;23;20022;-88
2021/09/15 13:01:00;;;;;;;7.65;5.47;;;22.50;99.90;;;24.61;84.96;99962.16;6224929;23;20499;-86
2021/09/15 13:03:41;;;;;;;5.53;4.68;;;22.60;99.90;;;24.50;85.74;99964.63;6251307;23;20004;-88
2021/09/15 13:06:07;;;;;;;6.53;5.60;;;22.50;99.90;;;24.37;84.90;99961.13;6224630;23;20084;-88
2021/09/15 13:08:34;;;;;;;7.95;5.30;;;22.40;99.90;;;24.24;85.24;99964.03;6252865;23;20000;-88
2021/09/15 13:11:01;;;;;;;8.43;5.70;;;22.40;99.90;;;24.34;85.70;99962.06;6224379;23;20050;-88
2021/09/15 13:13:29;;;;;;;5.88;5.15;;;22.40;99.90;;;24.58;85.36;99963.88;6250362;23;20031;-88
2021/09/15 13:16:17;;;;;;;5.80;5.28;;;22.50;99.90;;;24.85;84.65;99968.13;6251467;23;20000;-86
2021/09/15 13:18:43;;;;;;;7.53;4.80;;;22.70;99.90;;;24.86;82.55;99970.50;6224305;23;20004;-88
2021/09/15 13:21:10;;;;;;;6.35;5.75;;;22.90;99.90;;;24.50;82.26;99976.06;6224394;23;20020;-87
2021/09/15 13:23:36;;;;;;;6.55;5.78;;;22.90;99.90;;;24.29;84.18;99974.88;6222824;23;20008;-88
2021/09/15 13:26:12;;;;;;;8.65;5.65;;;22.70;99.90;;;24.43;84.56;99982.88;6247036;23;20004;-86
2021/09/15 13:28:38;;;;;;;7.05;5.22;;;22.70;99.90;;;24.67;83.70;99974.53;6223248;23;20068;-88
2021/09/15 13:31:04;;;;;;;5.75;5.15;;;22.80;99.90;;;24.58;82.70;99980.22;6249481;23;20028;-87
2021/09/15 13:33:30;;;;;;;6.03;4.80;;;22.80;99.90;;;24.83;82.69;99976.34;6248399;23;20070;-87
2021/09/15 13:35:56;;;;;;;6.38;5.20;;;22.90;99.90;;;24.45;84.50;99977.47;6247684;23;20388;-88
2021/09/15 13:38:23;;;;;;;7.18;6.05;;;22.90;99.90;;;24.35;84.61;99972.19;6247986;23;20008;-89
2021/09/15 13:40:49;;;;;;;9.32;6.07;;;22.80;99.90;;;24.87;83.33;99968.44;6222040;23;20016;-89
2021/09/15 13:43:15;;;;;;;7.45;5.75;;;22.90;99.90;;;25.01;82.37;99962.13;6247202;23;20387;-87
2021/09/15 13:45:41;;;;;;;6.93;5.88;;;23.00;99.90;;;24.89;81.34;99955.28;6221738;23;20004;-89
2021/09/15 13:48:07;;;;;;;6.88;6.18;;;22.90;99.90;;;24.93;81.15;99950.22;6221635;23;20015;-91
2021/09/15 13:50:33;;;;;;;8.85;5.95;;;22.90;99.90;;;25.02;81.58;99963.72;6222828;23;20008;-87
2021/09/15 13:52:59;;;;;;;7.25;6.50;;;23.00;99.90;;;25.09;80.00;99960.56;6224858;23;20014;-88
2021/09/15 13:55:25;;;;;;;7.10;6.40;;;23.10;99.90;;;25.33;79.49;99955.03;6226039;23;20036;-88
2021/09/15 13:57:51;;;;;;;7.32;6.60;;;23.30;99.90;;;24.88;81.17;99959.41;6228689;23;20000;-87
2021/09/15 14:00:18;;;;;;;10.07;7.15;;;23.30;99.90;;;24.84;81.62;99960.81;6255925;23;20009;-88
2021/09/15 14:02:44;;;;;;;8.75;7.47;;;23.30;99.90;;;24.81;81.10;99958.88;6256107;23;20148;-88
2021/09/15 14:05:11;;;;;;;8.38;6.90;;;23.30;99.90;;;24.92;81.07;99953.53;6230563;23;20090;-86
2021/09/15 14:07:44;;;;;;;11.07;7.10;;;23.30;99.90;;;24.83;80.96;99964.94;6234010;23;20039;-88
2021/09/15 14:10:11;;;;;;;8.55;7.25;;;23.40;99.90;;;24.63;81.15;99966.13;6202869;23;20012;-89
2021/09/15 14:12:38;;;;;;;7.75;6.93;;;23.30;99.90;;;24.56;82.22;99966.41;6253611;23;20434;-87
2021/09/15 14:15:05;;;;;;;10.38;6.97;;;23.20;99.90;;;24.83;81.54;99962.09;6226411;23;20000;-85
2021/09/15 14:17:32;;;;;;;8.88;7.38;;;23.40;99.90;;;25.13;79.83;99964.06;6225152;23;20008;-88
2021/09/15 14:19:59;;;;;;;9.02;8.13;;;23.50;99.90;;;25.08;78.22;99970.38;6252612;23;20034;-88
2021/09/15 14:22:26;;;;;;;9.35;7.65;;;23.60;99.90;;;24.90;79.21;99967.50;6250508;23;20014;-87
2021/09/15 14:24:52;;;;;;;8.38;7.57;;;23.50;99.90;;;25.04;79.29;99978.34;6227233;23;20027;-87
2021/09/15 14:27:21;;;;;;;9.38;6.88;;;23.60;99.90;;;25.03;77.98;99971.81;6227808;23;20426;-87
2021/09/15 14:29:47;;;;;;;9.02;8.10;;;23.60;99.90;;;25.00;77.78;99975.63;6257556;23;20012;-87
2021/09/15 14:32:13;;;;;;;9.68;8.68;;;23.60;99.90;;;25.13;77.73;99972.63;6242059;23;20089;-88
2021/09/15 14:34:39;;;;;;;9.70;8.07;;;23.60;99.90;;;25.12;77.31;99983.25;6231349;23;20008;-86
2021/09/15 14:37:05;;;;;;;10.95;8.38;;;23.60;99.90;;;24.96;77.66;99974.19;6224778;23;20012;-88
2021/09/15 14:39:34;;;;;;;9.18;8.27;;;23.50;99.90;;;25.08;77.82;99976.91;6252067;23;20500;-88
2021/09/15 14:42:01;;;;;;;9.95;8.93;;;23.50;99.90;;;25.23;77.08;99974.22;6253844;23;20052;-86
2021/09/15 14:44:27;;;;;;;11.45;9.80;;;23.60;99.90;;;25.13;76.80;99975.50;6256336;23;20283;-88
2021/09/15 14:46:54;;;;;;;11.82;9.40;;;23.60;99.90;;;24.95;76.51;99970.53;6227493;23;20019;-87
2021/09/15 14:49:21;;;;;;;9.48;8.60;;;23.50;99.90;;;24.74;78.02;99973.44;6253477;23;20007;-87
2021/09/15 14:51:47;;;;;;;11.98;9.45;;;23.40;99.90;;;24.63;79.13;99968.97;6253761;23;20070;-83
2021/09/15 14:54:15;;;;;;;11.32;10.27;;;23.30;99.90;;;24.58;78.95;99971.66;6231904;23;20328;-87
2021/09/15 14:56:41;;;;;;;12.60;11.30;;;23.20;99.90;;;24.56;79.60;99971.34;6254531;23;20450;-85
2021/09/15 14:59:09;;;;;;;10.80;9.75;;;23.10;99.90;;;24.48;80.00;99973.69;6228328;23;20015;-87
2021/09/15 15:01:38;;;;;;;12.30;10.77;;;23.00;99.90;;;24.38;80.66;99965.53;6229575;23;20008;-85
2021/09/15 15:04:07;;;;;;;13.43;12.13;;;23.00;99.90;;;24.26;80.57;99981.50;6258805;23;20007;-85
2021/09/15 15:06:34;;;;;;;13.25;11.70;;;22.80;99.90;;;24.23;80.79;99976.75;6230021;23;20453;-87
2021/09/15 15:09:02;;;;;;;14.18;12.77;;;22.80;99.90;;;24.25;81.59;99974.19;6231947;23;20066;-85
2021/09/15 15:11:35;;;;;;;15.18;13.65;;;22.70;99.90;;;24.22;81.21;99969.44;6240428;23;20008;-85
2021/09/15 15:14:01;;;;;;;15.80;14.23;;;22.70;99.90;;;24.05;82.03;99960.28;6230909;23;20008;-86
2021/09/15 15:16:27;;;;;;;15.45;13.95;;;22.60;99.90;;;23.90;82.50;99969.84;6254954;23;20016;-86
2021/09/15 15:18:53;;;;;;;15.70;14.10;;;22.50;99.90;;;23.77;83.02;99969.91;6232465;23;20135;-86
2021/09/15 15:21:20;;;;;;;16.33;14.60;;;22.30;99.90;;;23.58;84.45;99971.03;6255333;23;20004;-86
2021/09/15 15:23:46;;;;;;;17.60;15.40;;;22.20;99.90;;;23.35;85.75;99972.25;6229452;23;20004;-88
2021/09/15 15:26:13;;;;;;;20.13;15.57;;;22.10;99.90;;;23.22;86.02;99965.81;6226905;23;20016;-87
2021/09/15 15:28:45;;;;;;;16.88;15.07;;;21.90;99.90;;;23.06;87.52;99978.16;6226552;23;20004;-86
2021/09/15 15:31:23;;;;;;;19.33;17.40;;;21.80;99.90;;;22.89;89.85;99982.38;6227834;23;20068;-85
2021/09/15 15:34:02;;;;;;;23.13;20.73;;;21.60;99.90;;;22.67;94.31;99986.44;6231403;23;20016;-87
2021/09/15 15:36:41;;;;;;;27.08;21.50;;;21.50;99.90;;;22.40;97.67;99981.97;6254827;23;20066;-89
2021/09/15 15:39:08;;;;;;;28.20;21.50;;;21.20;99.90;;;22.19;98.85;99981.81;6230702;23;20346;-85
2021/09/15 15:41:42;;;;;;;29.85;24.27;;;21.00;99.90;;;22.08;100.00;99985.00;6255084;23;20431;-91
2021/09/15 15:44:11;;;;;;;32.65;27.13;;;20.80;99.90;;;21.91;100.00;99995.66;6259548;23;20000;-86
2021/09/15 15:46:39;;;;;;;30.08;23.63;;;20.70;99.90;;;21.82;100.00;99995.50;6229529;23;20021;-87
2021/09/15 15:49:09;;;;;;;35.05;29.10;;;20.60;99.90;;;21.78;100.00;100006.16;6232408;23;20019;-89
2021/09/15 15:51:35;;;;;;;29.45;25.70;;;20.50;99.90;;;21.74;100.00;100007.50;6231931;23;20039;-86
2021/09/15 15:54:04;;;;;;;34.50;28.05;;;20.50;99.90;;;21.74;100.00;100004.66;6230021;23;20018;-87
2021/09/15 15:56:30;;;;;;;34.85;29.10;;;20.40;99.90;;;21.76;100.00;100014.34;6257935;23;20035;-85
2021/09/15 15:59:00;;;;;;;42.45;32.13;;;20.40;99.90;;;21.75;100.00;100012.75;6231561;23;20008;-86
2021/09/15 16:01:26;;;;;;;39.60;31.23;;;20.40;99.90;;;21.87;100.00;100009.13;6261572;23;20052;-87
2021/09/15 16:03:53;;;;;;;42.08;31.70;;;20.50;99.90;;;21.97;100.00;100010.91;6228970;23;20015;-86
2021/09/15 16:06:20;;;;;;;41.03;32.47;;;20.60;99.90;;;22.09;100.00;100017.84;6237281;23;20012;-87
2021/09/15 16:08:57;;;;;;;39.33;30.85;;;20.70;99.90;;;22.21;100.00;100022.78;6262714;22;20000;-89
2021/09/15 16:11:26;;;;;;;43.70;32.00;;;20.80;99.90;;;22.05;100.00;100020.84;6230141;23;20035;-87
2021/09/15 16:13:52;;;;;;;41.97;33.08;;;20.80;99.90;;;22.08;100.00;100027.66;6226265;23;20004;-86
2021/09/15 16:16:18;;;;;;;41.20;30.15;;;20.80;99.90;;;22.01;100.00;100030.72;6230100;23;20011;-88
2021/09/15 16:18:44;;;;;;;36.17;28.13;;;20.70;99.90;;;21.99;100.00;100036.81;6229624;23;20079;-88
2021/09/15 16:21:30;;;;;;;34.45;25.75;;;20.70;99.90;;;21.72;100.00;100039.22;6226031;23;20008;-87
2021/09/15 16:23:56;;;;;;;33.13;23.92;;;20.50;99.90;;;21.49;100.00;100039.44;6250739;23;20438;-87
2021/09/15 16:26:28;;;;;;;32.25;23.58;;;20.30;99.90;;;21.32;100.00;100052.88;6227982;23;20135;-87
2021/09/15 16:28:54;;;;;;;29.58;22.48;;;20.10;99.90;;;21.12;100.00;100060.72;6225020;23;20426;-87
2021/09/15 16:31:20;;;;;;;30.20;23.48;;;19.90;99.90;;;21.04;100.00;100064.94;6252377;23;20015;-85
2021/09/15 16:33:49;;;;;;;28.45;21.42;;;19.80;99.90;;;20.81;100.00;100062.25;6250873;23;20312;-87
2021/09/15 16:36:16;;;;;;;27.50;19.05;;;19.60;99.90;;;20.55;100.00;100066.13;6225080;23;20062;-85
2021/09/15 16:38:42;;;;;;;25.30;18.90;;;19.50;99.90;;;20.41;100.00;100068.06;6252267;23;20000;-86
2021/09/15 16:41:16;;;;;;;22.83;17.42;;;19.30;99.90;;;20.30;100.00;100073.16;6225440;23;20015;-86
2021/09/15 16:43:46;;;;;;;20.25;16.23;;;19.20;99.90;;;20.15;100.00;100080.34;6224521;23;20012;-87
2021/09/15 16:46:17;;;;;;;19.75;14.77;;;19.10;99.90;;;20.09;100.00;100084.13;6225854;23;20024;-86
2021/09/15 16:48:45;;;;;;;18.08;14.25;;;19.00;99.90;;;20.02;100.00;100076.56;6250956;23;20011;-87
2021/09/15 16:51:12;;;;;;;15.15;12.38;;;18.90;99.90;;;20.02;99.84;100079.41;6226169;23;20034;-87
2021/09/15 16:53:41;;;;;;;15.77;12.30;;;18.80;99.90;;;19.89;99.54;100084.09;6225484;23;20008;-86
2021/09/15 16:56:07;;;;;;;14.95;10.23;;;18.80;99.90;;;19.77;97.92;100085.56;6224617;23;20672;-87
2021/09/15 16:58:33;;;;;;;12.00;9.35;;;18.70;99.90;;;19.77;97.98;100074.22;6224407;23;20008;-86
2021/09/15 17:00:59;;;;;;;11.35;8.38;;;18.70;99.90;;;19.77;98.79;100079.91;6223979;23;20023;-86
2021/09/15 17:03:25;;;;;;;11.30;8.27;;;18.60;99.90;;;19.76;98.41;100075.44;6223493;23;20427;-87
2021/09/15 17:05:53;;;;;;;10.40;7.45;;;18.60;99.90;;;19.74;97.94;100071.47;6251042;23;20000;-88
2021/09/15 17:08:19;;;;;;;10.80;8.15;;;18.50;99.90;;;19.70;98.85;100077.19;6250612;23;20007;-86
2021/09/15 17:10:45;;;;;;;8.48;6.35;;;18.50;99.90;;;19.72;99.35;100077.53;6223239;23;20004;-88
2021/09/15 17:13:12;;;;;;;10.23;7.00;;;18.60;99.90;;;19.73;100.00;100084.03;6223515;23;20102;-85
2021/09/15 17:15:38;;;;;;;7.68;5.90;;;18.50;99.90;;;19.72;99.77;100073.91;6224569;23;20008;-87
2021/09/15 17:18:04;;;;;;;12.45;8.48;;;18.50;99.90;;;19.70;99.02;100077.19;6223186;23;20043;-87
2021/09/15 17:20:30;;;;;;;11.35;7.20;;;18.50;99.90;;;19.67;99.17;100082.94;6250959;23;20088;-84
2021/09/15 17:22:56;;;;;;;8.57;6.50;;;18.50;99.90;;;19.69;99.32;100074.78;6251098;23;19996;-87
2021/09/15 17:25:22;;;;;;;9.90;6.40;;;18.50;99.90;;;19.67;99.66;100080.09;6250012;23;20090;-88
2021/09/15 17:27:49;;;;;;;8.82;5.80;;;18.40;99.90;;;19.65;99.60;100077.69;6225504;23;20008;-87
2021/09/15 17:30:18;;;;;;;9.80;6.75;;;18.50;99.90;;;19.60;100.00;100089.53;6252366;23;20004;-87
2021/09/15 17:32:44;;;;;;;7.35;5.75;;;18.40;99.90;;;19.50;99.67;100082.00;6228973;23;20008;-86
2021/09/15 17:35:11;;;;;;;11.75;7.07;;;18.30;99.90;;;19.44;99.88;100090.22;6252771;23;20008;-87
2021/09/15 17:37:37;;;;;;;8.30;5.35;;;18.20;99.90;;;19.33;99.74;100100.06;6227338;23;20008;-86
2021/09/15 17:40:05;;;;;;;5.80;4.18;;;18.20;99.90;;;19.20;99.97;100094.22;6225271;23;20011;-83
2021/09/15 17:42:31;;;;;;;6.07;5.00;;;18.00;99.90;;;19.08;100.00;100103.34;6222825;23;20004;-86
2021/09/15 17:44:57;;;;;;;5.97;4.50;;;18.00;99.90;;;18.97;100.00;100105.56;6248333;23;20004;-86
2021/09/15 17:47:24;;;;;;;10.60;6.25;;;17.80;99.90;;;18.80;100.00;100106.63;6248472;23;20091;-85
2021/09/15 17:49:50;;;;;;;9.05;6.47;;;17.70;99.90;;;18.78;100.00;100101.38;6250942;23;20053;-88
2021/09/15 17:52:15;;;;;;;13.40;6.32;;;17.60;99.90;;;18.72;100.00;100116.44;6250784;23;20044;-85
2021/09/15 17:54:41;;;;;;;7.80;5.53;;;17.60;99.90;;;18.67;100.00;100114.88;6251501;23;20012;-88
2021/09/15 17:57:07;;;;;;;7.50;4.63;;;17.50;99.90;;;18.61;100.00;100115.78;6224871;23;20008;-86
2021/09/15 17:59:35;;;;;;;10.38;5.80;;;17.50;99.90;;;18.55;100.00;100112.63;6223646;23;20462;-87
2021/09/15 18:02:02;;;;;;;9.50;5.65;;;17.40;99.90;;;18.53;100.00;100122.75;6249749;23;20095;-84